Avoch, United Kingdom
Current Conditions -  °F | °C
As of 11:20 AM on Saturday 25 Oct 2014 (Local Time) from EGPE Reporting Station
Rain Showers Rain Showers  
Wind Chill: 52°   Ceiling: Unl
Heat Index: 52°   Visibility: 6mi
Dew Point: 50°   Wind: 17mph
Humidity: 94%   Direction: 210°SSW
Pressure: 29.47"   Gusts: NA
Location:  57.57°N, 4.17°W
Report Text: EGPE 251020Z 21015KT 9999 VCSH FEW014 FEW025CB 11/10 Q0998
Loading
Personal Weather Stations






























Interactive Weather Map New forecast layout! Learn more

10-Day Weather Forecast

Advertisements
Track Severe Weather on mobile